CheckWX is a tool to help pilots better visualize weather data.  It is not intended as a substitute for an official pre-flight weather briefing.

06:50:08 UTC

EDGS TAF
Siegerland Airport
Germany
TAF EDGS 160550Z 1606/1615 25007KT 9999 SCT030

Jun-16@
06:00 UTC

Jun-16 @ 06:00 UTC

Jun-16@
15:00 UTC

Jun-16 @ 15:00 UTC

TAF EDGS 160550Z 1606/1615 25007KT 9999 SCT030
Wind
  • 250° at 7 KTS
Cloud Levels
  • Scattered at 3,000' AGL